Time;durP1;ratioP1;P1;durP2;ratioP2;P2;SDS_P1;SDS_P2;PMS_P1;PMS_P2;Temp;Humidity;BMP_temperature;BMP_pressure;BME280_temperature;BME280_humidity;BME280_pressure;Samples;Min_cycle;Max_cycle;Signal;HPM_P1;HPM_P2
2021/05/18 00:01:24;;;;;;;8.47;2.70;;;;;;;;;;10295204;28;20117;-62
2021/05/18 00:06:21;;;;;;;2.57;1.20;;;;;;;;;;10299205;28;20048;-62
2021/05/18 00:16:35;;;;;;;3.30;2.20;;;;;;;;;;10302573;28;20034;-62
2021/05/18 00:21:33;;;;;;;5.20;2.27;;;;;;;;;;10282794;28;20063;-62
2021/05/18 00:26:31;;;;;;;4.70;2.80;;;;;;;;;;10280513;28;20050;-62
2021/05/18 00:31:28;;;;;;;4.70;2.60;;;;;;;;;;10276318;28;20124;-62
2021/05/18 00:36:26;;;;;;;7.47;3.00;;;;;;;;;;10292417;28;20878;-63
2021/05/18 00:41:23;;;;;;;4.73;2.63;;;;;;;;;;10299865;28;20048;-62
2021/05/18 00:46:23;;;;;;;7.40;3.20;;;;;;;;;;10284645;28;20137;-63
2021/05/18 00:51:20;;;;;;;7.68;4.25;;;;;;;;;;10273622;28;20042;-62
2021/05/18 00:56:33;;;;;;;5.43;4.20;;;;;;;;;;10293232;28;20485;-63
2021/05/18 01:01:31;;;;;;;8.80;4.63;;;;;;;;;;10296090;28;20049;-64
2021/05/18 01:06:29;;;;;;;7.27;3.30;;;;;;;;;;10285692;28;20095;-63
2021/05/18 01:11:28;;;;;;;9.45;3.78;;;;;;;;;;10299458;28;20037;-63
2021/05/18 01:16:27;;;;;;;9.88;3.47;;;;;;;;;;10292689;28;20068;-63
2021/05/18 01:21:25;;;;;;;9.90;3.60;;;;;;;;;;10297083;28;20049;-63
2021/05/18 01:26:23;;;;;;;8.73;3.73;;;;;;;;;;10294071;28;20117;-63
2021/05/18 01:31:23;;;;;;;9.40;3.15;;;;;;;;;;10290686;28;20040;-64
2021/05/18 01:36:22;;;;;;;8.23;3.67;;;;;;;;;;10291974;28;20057;-64
2021/05/18 01:46:45;;;;;;;11.95;3.83;;;;;;;;;;10258970;28;20418;-61
2021/05/18 01:51:45;;;;;;;7.28;3.50;;;;;;;;;;10293664;28;20486;-61
2021/05/18 02:01:41;;;;;;;12.85;3.88;;;;;;;;;;10285216;28;20037;-62
2021/05/18 02:06:39;;;;;;;13.38;3.92;;;;;;;;;;10302403;28;20044;-62
2021/05/18 02:11:43;;;;;;;16.40;4.65;;;;;;;;;;10309122;28;20383;-63
2021/05/18 02:16:42;;;;;;;7.30;2.83;;;;;;;;;;10299302;28;20037;-63
2021/05/18 02:26:46;;;;;;;7.18;3.88;;;;;;;;;;10302995;28;20095;-62
2021/05/18 02:31:44;;;;;;;5.27;2.10;;;;;;;;;;10285113;28;20041;-61
2021/05/18 02:37:00;;;;;;;6.82;3.45;;;;;;;;;;10287852;28;21193;-62
2021/05/18 02:41:58;;;;;;;11.85;3.10;;;;;;;;;;10298465;28;20040;-63
2021/05/18 02:52:20;;;;;;;4.05;1.42;;;;;;;;;;10333129;28;20429;-61
2021/05/18 02:57:37;;;;;;;6.22;2.42;;;;;;;;;;10338691;28;20506;-59
2021/05/18 03:02:34;;;;;;;7.35;3.55;;;;;;;;;;10309853;28;20043;-62
2021/05/18 03:07:32;;;;;;;3.95;2.03;;;;;;;;;;10308798;28;20061;-61
2021/05/18 03:12:29;;;;;;;11.23;3.40;;;;;;;;;;10307447;28;20040;-59
2021/05/18 03:17:27;;;;;;;14.63;3.40;;;;;;;;;;10322356;28;20029;-61
2021/05/18 03:22:25;;;;;;;13.13;3.87;;;;;;;;;;10308781;28;20458;-61
2021/05/18 03:27:24;;;;;;;6.27;3.20;;;;;;;;;;10289942;28;20052;-64
2021/05/18 03:37:58;;;;;;;8.05;3.83;;;;;;;;;;10326898;28;20037;-63
2021/05/18 03:43:12;;;;;;;9.20;4.65;;;;;;;;;;10310840;28;20040;-63
2021/05/18 04:03:40;;;;;;;1.77;1.23;;;;;;;;;;10277781;28;20034;-61
2021/05/18 04:19:12;;;;;;;1.08;0.80;;;;;;;;;;10272611;28;20033;-63
2021/05/18 04:59:01;;;;;;;3.58;1.25;;;;;;;;;;10266344;28;20124;-61
2021/05/18 05:16:12;;;;;;;3.13;1.73;;;;;;;;;;10258219;28;20030;-63
2021/05/18 05:21:10;;;;;;;5.23;3.53;;;;;;;;;;10272243;28;20401;-62
2021/05/18 05:26:08;;;;;;;5.80;2.60;;;;;;;;;;10282369;28;20438;-64
2021/05/18 05:31:05;;;;;;;16.03;2.07;;;;;;;;;;10262653;28;20038;-64
2021/05/18 05:36:03;;;;;;;2.97;1.57;;;;;;;;;;10287650;28;20034;-63
2021/05/18 05:41:01;;;;;;;2.47;1.47;;;;;;;;;;10292895;28;20040;-64
2021/05/18 05:45:59;;;;;;;7.82;1.98;;;;;;;;;;10269770;28;20124;-64
2021/05/18 05:50:56;;;;;;;6.10;2.80;;;;;;;;;;10289205;28;20051;-64
2021/05/18 05:55:54;;;;;;;5.67;1.40;;;;;;;;;;10269545;28;20693;-63
2021/05/18 06:00:51;;;;;;;2.37;1.67;;;;;;;;;;10253822;28;20045;-62
2021/05/18 06:05:48;;;;;;;3.13;1.83;;;;;;;;;;10280543;28;20705;-62
2021/05/18 06:10:48;;;;;;;2.23;1.60;;;;;;;;;;10286398;28;20197;-62
2021/05/18 06:52:25;;;;;;;5.00;1.98;;;;;;;;;;10291966;28;20487;-63
2021/05/18 06:57:23;;;;;;;2.60;1.70;;;;;;;;;;10272857;28;20402;-63
2021/05/18 07:02:20;;;;;;;3.90;1.50;;;;;;;;;;10299150;28;20402;-64
2021/05/18 07:07:20;;;;;;;2.87;1.47;;;;;;;;;;10292242;28;20037;-63
2021/05/18 07:12:18;;;;;;;3.03;1.70;;;;;;;;;;10293086;28;20040;-63
2021/05/18 07:17:15;;;;;;;4.20;1.80;;;;;;;;;;10288145;28;20040;-63
2021/05/18 07:22:13;;;;;;;3.67;1.93;;;;;;;;;;10270684;28;20039;-63
2021/05/18 07:27:10;;;;;;;2.40;1.53;;;;;;;;;;10280918;28;20045;-65
2021/05/18 07:32:07;;;;;;;3.23;1.40;;;;;;;;;;10284838;28;20448;-67
2021/05/18 07:37:05;;;;;;;2.13;1.33;;;;;;;;;;10288517;28;20041;-64
2021/05/18 07:42:02;;;;;;;3.53;1.40;;;;;;;;;;10274216;28;20077;-65
2021/05/18 07:47:01;;;;;;;3.17;1.60;;;;;;;;;;10281425;28;20050;-65
2021/05/18 08:07:27;;;;;;;2.17;1.63;;;;;;;;;;10290744;28;20502;-67
2021/05/18 08:12:25;;;;;;;4.63;1.83;;;;;;;;;;10286540;28;20039;-65
2021/05/18 08:17:28;;;;;;;5.50;1.60;;;;;;;;;;10293501;28;20045;-65
2021/05/18 10:38:50;;;;;;;0.97;0.73;;;;;;;;;;10304030;28;20034;-65
2021/05/18 10:43:57;;;;;;;1.58;1.20;;;;;;;;;;10287456;28;20044;-66
2021/05/18 10:48:56;;;;;;;0.40;0.40;;;;;;;;;;10296280;28;20435;-66
2021/05/18 10:54:11;;;;;;;0.77;0.55;;;;;;;;;;10291467;28;20045;-68
2021/05/18 10:59:18;;;;;;;1.25;0.88;;;;;;;;;;10295056;28;20048;-68
2021/05/18 11:04:15;;;;;;;1.25;0.90;;;;;;;;;;10289056;28;20037;-66
2021/05/18 11:09:16;;;;;;;1.50;0.63;;;;;;;;;;10284899;28;20018;-63
2021/05/18 11:14:16;;;;;;;5.30;1.67;;;;;;;;;;10285181;28;20240;-65
2021/05/18 11:19:14;;;;;;;1.38;1.17;;;;;;;;;;10288352;28;20105;-66
2021/05/18 11:24:12;;;;;;;4.20;1.40;;;;;;;;;;10282336;28;20100;-64
2021/05/18 11:29:09;;;;;;;1.17;0.88;;;;;;;;;;10296342;28;20013;-66
2021/05/18 11:34:07;;;;;;;1.50;0.77;;;;;;;;;;10294157;28;20444;-65
2021/05/18 11:39:11;;;;;;;1.35;0.82;;;;;;;;;;10304087;28;20026;-67
2021/05/18 11:44:09;;;;;;;4.53;1.48;;;;;;;;;;10281832;28;20045;-66
2021/05/18 11:49:08;;;;;;;1.02;0.57;;;;;;;;;;10297158;28;20288;-66
2021/05/18 11:54:06;;;;;;;0.75;0.75;;;;;;;;;;10278191;28;20037;-66
2021/05/18 11:59:08;;;;;;;3.90;1.40;;;;;;;;;;10281249;28;20578;-69
2021/05/18 12:04:16;;;;;;;2.17;1.48;;;;;;;;;;10275451;28;20033;-65
2021/05/18 12:09:15;;;;;;;1.90;0.80;;;;;;;;;;10305769;28;20044;-63
2021/05/18 12:14:12;;;;;;;1.92;1.50;;;;;;;;;;10261858;28;20030;-65
2021/05/18 12:19:17;;;;;;;1.47;0.83;;;;;;;;;;10287916;28;20032;-66
2021/05/18 12:24:15;;;;;;;4.60;1.33;;;;;;;;;;10280279;28;20041;-66
2021/05/18 12:29:32;;;;;;;2.00;1.38;;;;;;;;;;10268602;28;20403;-66
2021/05/18 12:34:30;;;;;;;2.35;1.20;;;;;;;;;;10281301;28;20033;-65
2021/05/18 12:39:27;;;;;;;;;;;;;;;;;;10282454;28;20041;-64
2021/05/18 12:44:28;;;;;;;1.05;0.75;;;;;;;;;;10270170;28;20283;-66
2021/05/18 12:49:27;;;;;;;3.30;0.82;;;;;;;;;;10281966;28;20016;-66
2021/05/18 12:54:24;;;;;;;4.15;1.30;;;;;;;;;;10283537;28;20036;-66
2021/05/18 12:59:22;;;;;;;;;;;;;;;;;;10269671;28;20340;-65
2021/05/18 13:04:19;;;;;;;1.70;1.17;;;;;;;;;;10265837;28;19912;-66
2021/05/18 13:09:17;;;;;;;;;;;;;;;;;;10291068;28;20049;-66
2021/05/18 13:14:14;;;;;;;2.83;2.03;;;;;;;;;;10272687;28;20360;-65
2021/05/18 13:19:12;;;;;;;1.03;0.80;;;;;;;;;;10272003;28;20487;-66
2021/05/18 13:29:08;;;;;;;;;;;;;;;;;;10273147;28;20034;-65
2021/05/18 13:34:06;;;;;;;1.93;1.30;;;;;;;;;;10278730;28;19913;-66
2021/05/18 13:39:03;;;;;;;;;;;;;;;;;;10269197;28;20446;-65
2021/05/18 13:44:02;;;;;;;4.00;2.40;;;;;;;;;;10263157;28;19921;-65
2021/05/18 13:48:59;;;;;;;2.63;1.20;;;;;;;;;;10272564;28;20032;-67
2021/05/18 13:53:57;;;;;;;;;;;;;;;;;;10280725;28;20037;-65
2021/05/18 13:58:54;;;;;;;1.15;1.05;;;;;;;;;;10282308;28;19920;-65
2021/05/18 14:03:53;;;;;;;;;;;;;;;;;;10293229;28;20330;-66
2021/05/18 14:08:51;;;;;;;;;;;;;;;;;;10282045;28;19920;-67
2021/05/18 14:13:50;;;;;;;2.50;2.30;;;;;;;;;;10272757;28;19912;-68
2021/05/18 14:18:49;;;;;;;2.83;2.40;;;;;;;;;;10288985;28;20116;-64
2021/05/18 14:28:44;;;;;;;0.80;0.67;;;;;;;;;;10295574;28;20034;-66
2021/05/18 14:33:41;;;;;;;1.83;1.40;;;;;;;;;;10292528;28;20116;-66
2021/05/18 14:38:41;;;;;;;1.75;1.65;;;;;;;;;;10282520;28;20041;-66
2021/05/18 14:59:04;;;;;;;1.65;0.90;;;;;;;;;;10272731;28;20434;-65
2021/05/18 15:04:02;;;;;;;2.42;1.23;;;;;;;;;;10266746;28;20202;-64
2021/05/18 15:08:59;;;;;;;0.90;0.87;;;;;;;;;;10290947;28;20438;-63
2021/05/18 15:13:56;;;;;;;1.57;0.93;;;;;;;;;;10289319;28;20360;-64
2021/05/18 15:18:54;;;;;;;;;;;;;;;;;;10284913;28;20574;-65
2021/05/18 15:23:52;;;;;;;2.85;1.17;;;;;;;;;;10283919;28;20389;-65
2021/05/18 15:28:49;;;;;;;;;;;;;;;;;;10291723;28;20403;-64
2021/05/18 15:33:47;;;;;;;1.88;1.20;;;;;;;;;;10284887;28;19914;-64
2021/05/18 15:38:45;;;;;;;;;;;;;;;;;;10283094;28;20037;-64
2021/05/18 15:43:45;;;;;;;0.40;0.40;;;;;;;;;;10293767;28;19939;-64
2021/05/18 15:48:42;;;;;;;1.45;1.17;;;;;;;;;;10287055;28;20068;-64
2021/05/18 15:53:40;;;;;;;;;;;;;;;;;;10293157;28;20457;-64
2021/05/18 15:58:37;;;;;;;1.65;1.30;;;;;;;;;;10277698;28;20028;-65
2021/05/18 16:03:34;;;;;;;;;;;;;;;;;;10285010;28;20526;-64
2021/05/18 16:13:29;;;;;;;;;;;;;;;;;;10284567;28;20081;-63
2021/05/18 16:18:26;;;;;;;1.70;1.57;;;;;;;;;;10283034;28;19923;-65
2021/05/18 16:23:23;;;;;;;;;;;;;;;;;;10272833;28;20033;-65
2021/05/18 16:28:21;;;;;;;2.63;1.80;;;;;;;;;;10257335;28;20066;-65
2021/05/18 16:33:18;;;;;;;;;;;;;;;;;;10302031;28;20034;-65
2021/05/18 16:38:16;;;;;;;0.47;0.37;;;;;;;;;;10277347;28;19913;-65
2021/05/18 16:43:13;;;;;;;;;;;;;;;;;;10282294;28;20513;-64
2021/05/18 16:48:11;;;;;;;1.47;1.17;;;;;;;;;;10282978;28;19927;-65
2021/05/18 16:53:09;;;;;;;;;;;;;;;;;;10283999;28;20243;-66
2021/05/18 16:58:07;;;;;;;1.75;1.60;;;;;;;;;;10293727;28;19920;-65
2021/05/18 17:03:04;;;;;;;;;;;;;;;;;;10277759;28;20045;-64
2021/05/18 17:08:05;;;;;;;6.88;2.28;;;;;;;;;;10251003;28;19928;-64
2021/05/18 17:13:03;;;;;;;1.65;1.20;;;;;;;;;;10288558;28;20076;-65
2021/05/18 17:18:00;;;;;;;;;;;;;;;;;;10275424;28;20050;-64
2021/05/18 17:22:58;;;;;;;2.33;1.73;;;;;;;;;;10283275;28;19921;-64
2021/05/18 17:27:55;;;;;;;;;;;;;;;;;;10263763;28;20120;-64
2021/05/18 17:32:53;;;;;;;2.20;1.67;;;;;;;;;;10267321;28;19948;-65
2021/05/18 17:37:50;;;;;;;;;;;;;;;;;;10266802;28;20049;-64
2021/05/18 17:42:48;;;;;;;0.75;0.43;;;;;;;;;;10261253;28;19976;-65
2021/05/18 17:47:45;;;;;;;;;;;;;;;;;;10266702;28;20623;-64
2021/05/18 17:52:44;;;;;;;0.63;0.60;;;;;;;;;;10278734;28;19924;-65
2021/05/18 17:57:42;;;;;;;1.73;0.90;;;;;;;;;;10275111;28;20615;-65
2021/05/18 18:02:40;;;;;;;1.52;1.42;;;;;;;;;;10281832;28;20045;-65
2021/05/18 18:07:37;;;;;;;;;;;;;;;;;;10282665;28;20049;-66
2021/05/18 18:12:35;;;;;;;2.00;1.80;;;;;;;;;;10273321;28;19917;-65
2021/05/18 18:17:33;;;;;;;1.67;1.58;;;;;;;;;;10262267;28;20284;-65
2021/05/18 18:22:30;;;;;;;3.43;1.97;;;;;;;;;;10284376;28;20038;-65
2021/05/18 18:27:30;;;;;;;1.60;1.00;;;;;;;;;;10245768;28;20548;-64
2021/05/18 18:32:27;;;;;;;1.60;1.17;;;;;;;;;;10291455;28;20033;-65
2021/05/18 18:37:33;;;;;;;1.90;1.40;;;;;;;;;;10282944;28;20048;-66
2021/05/18 18:42:31;;;;;;;3.10;2.25;;;;;;;;;;10280283;28;20061;-66
2021/05/18 18:47:28;;;;;;;3.70;2.77;;;;;;;;;;10264403;28;20775;-66
2021/05/18 18:57:42;;;;;;;2.50;1.70;;;;;;;;;;10281521;28;20410;-65
2021/05/18 19:02:45;;;;;;;2.57;1.40;;;;;;;;;;10275693;28;20060;-65
2021/05/18 19:07:48;;;;;;;1.35;1.25;;;;;;;;;;10283158;28;20503;-65
2021/05/18 19:12:49;;;;;;;2.45;1.73;;;;;;;;;;10282037;28;20507;-66
2021/05/18 19:17:47;;;;;;;1.63;1.05;;;;;;;;;;10284895;28;20490;-65
2021/05/18 19:22:44;;;;;;;2.43;1.20;;;;;;;;;;10249652;28;20064;-65
2021/05/18 19:27:44;;;;;;;3.43;1.63;;;;;;;;;;10274648;28;20498;-65
2021/05/18 19:32:42;;;;;;;2.75;1.63;;;;;;;;;;10272539;28;20042;-66
2021/05/18 19:43:11;;;;;;;1.25;0.52;;;;;;;;;;10237287;28;20446;-65
2021/05/18 19:48:17;;;;;;;0.80;0.80;;;;;;;;;;10267455;28;20029;-66
2021/05/18 19:53:23;;;;;;;1.85;1.02;;;;;;;;;;10268660;28;20041;-65
2021/05/18 20:19:39;;;;;;;1.63;1.23;;;;;;;;;;10258307;28;20053;-65
2021/05/18 20:24:36;;;;;;;2.58;1.17;;;;;;;;;;10288263;28;20037;-65
2021/05/18 20:29:34;;;;;;;2.37;1.80;;;;;;;;;;10289361;28;20023;-64
2021/05/18 20:39:29;;;;;;;7.50;5.50;;;;;;;;;;10259328;28;20029;-65
2021/05/18 20:44:26;;;;;;;8.13;5.00;;;;;;;;;;10254951;28;20029;-66
2021/05/18 20:49:24;;;;;;;6.00;4.80;;;;;;;;;;10290183;28;20029;-66
2021/05/18 20:54:21;;;;;;;6.23;5.30;;;;;;;;;;10231706;28;20084;-65
2021/05/18 20:59:19;;;;;;;7.40;5.43;;;;;;;;;;10256528;28;20405;-66
2021/05/18 21:04:16;;;;;;;6.77;6.07;;;;;;;;;;10263076;28;20517;-65
2021/05/18 21:10:08;;;;;;;7.37;6.23;;;;;;;;;;10278912;28;20094;-66
2021/05/18 21:19:47;;;;;;;9.07;8.15;;;;;;;;;;10277962;28;20052;-65
2021/05/18 21:24:45;;;;;;;11.40;8.10;;;;;;;;;;10246786;28;20033;-65
2021/05/18 21:29:42;;;;;;;9.43;8.40;;;;;;;;;;10290158;28;20037;-65
2021/05/18 21:34:40;;;;;;;8.63;6.10;;;;;;;;;;10276167;28;20045;-65
2021/05/18 21:44:37;;;;;;;10.50;7.68;;;;;;;;;;10273228;28;20112;-67
2021/05/18 21:49:34;;;;;;;11.00;8.07;;;;;;;;;;10266171;28;20026;-65
2021/05/18 21:54:33;;;;;;;8.93;7.37;;;;;;;;;;10285857;28;20030;-65
2021/05/18 21:59:30;;;;;;;11.13;6.97;;;;;;;;;;10284348;28;20017;-65
2021/05/18 22:04:28;;;;;;;10.37;9.23;;;;;;;;;;10273704;28;20683;-66
2021/05/18 22:09:30;;;;;;;8.60;7.80;;;;;;;;;;10273814;28;20529;-65
2021/05/18 22:30:16;;;;;;;9.02;7.93;;;;;;;;;;10277710;28;20042;-66
2021/05/18 22:35:15;;;;;;;8.33;7.33;;;;;;;;;;10272018;28;20033;-66
2021/05/18 22:40:13;;;;;;;8.45;6.47;;;;;;;;;;10273576;28;20521;-65
2021/05/18 22:45:10;;;;;;;8.70;7.10;;;;;;;;;;10287927;28;20116;-66
2021/05/18 22:50:08;;;;;;;8.13;6.83;;;;;;;;;;10285366;28;20095;-65
2021/05/18 22:55:06;;;;;;;7.53;6.72;;;;;;;;;;10270303;28;20029;-66
2021/05/18 23:00:06;;;;;;;9.20;6.87;;;;;;;;;;10285286;28;20117;-65
2021/05/18 23:05:04;;;;;;;8.82;6.30;;;;;;;;;;10280825;28;20529;-65
2021/05/18 23:10:02;;;;;;;8.40;5.13;;;;;;;;;;10272181;28;20060;-65
2021/05/18 23:14:59;;;;;;;6.20;4.47;;;;;;;;;;10288994;28;20096;-65
2021/05/18 23:19:57;;;;;;;5.60;5.00;;;;;;;;;;10277159;28;20570;-66
2021/05/18 23:24:54;;;;;;;5.40;4.23;;;;;;;;;;10287531;28;20072;-66
2021/05/18 23:29:52;;;;;;;7.50;5.53;;;;;;;;;;10285325;28;20029;-65
2021/05/18 23:34:50;;;;;;;5.37;4.40;;;;;;;;;;10283287;28;20088;-65
2021/05/18 23:39:47;;;;;;;4.80;4.30;;;;;;;;;;10287641;28;20074;-66
2021/05/18 23:44:44;;;;;;;4.57;3.37;;;;;;;;;;10280950;28;20041;-65
2021/05/18 23:49:42;;;;;;;3.90;3.50;;;;;;;;;;10290936;28;20095;-66
2021/05/18 23:54:39;;;;;;;4.33;3.93;;;;;;;;;;10286986;28;20326;-65
2021/05/18 23:59:36;;;;;;;6.20;4.57;;;;;;;;;;10283293;28;20017;-66
